• Join FlightAware (Why Join?)
  • Login
  • US Flag 
09:33PM EDT


 

Airport Tracker/Info


-or-


 

Live Flight TrackerFlight Track Log ✈ N34VR ✈ 06-May-2013 ✈ MYNN / NAS - SVBM / BRM

Flight Track Log - Related Links

Times and Time Zones

All times are in EDT time to prevent confusion due to time zone crossing. See the N34VR flight status page for this flight to view local times or setup timezone preferences in your user account.

Time Position Orientation Groundspeed Altitude Reporting Facility
EDT Latitude Longitude Course Direction KTS MPH feet Rate Location/Type
10:43AM 25.0317 -77.5675 141° Southeast 255 293 7,600  Level Miami Center
10:44AM 24.9650 -77.5100 142° Southeast 195 224 10,300 1,140 Climbing Miami Center
10:46AM 24.8172 -77.3581 137° Southeast 332 382 11,100 1,500 Climbing Miami Center
10:47AM 24.2965 -77.0223 140° Southeast  Level Estimated
10:48AM 24.1903 -76.9593 141° Southeast  Level Estimated
10:48AM 24.6190 -77.2390 141° Southeast  Level Estimated
10:49AM 24.5711 -77.1239 141° Southeast 384 442 18,000  Level Miami Center
10:50AM 24.4875 -77.0506 141° Southeast 384 442 19,700 1,800 Climbing Miami Center
10:51AM 24.4000 -76.9706 140° Southeast 389 448 21,600 1,860 Climbing Miami Center
10:53AM 24.2203 -76.8064 140° Southeast 414 476 25,400 1,680 Climbing Miami Center
10:55AM 24.0383 -76.6403 140° Southeast 443 510 28,400 1,500 Climbing Miami Center
10:57AM 23.8382 -76.5259 138° Southeast  Level Estimated
10:57AM 23.8392 -76.4522 138° Southeast 467 537 31,500  Level Miami Center
10:59AM 23.6358 -76.2533 138° Southeast 483 556 34,200 1,320 Climbing Miami Center
11:01AM 23.4383 -76.0414 135° Southeast 489 563 36,800 1,440 Climbing Miami Center
11:03AM 23.2733 -75.8724 140° Southeast  Level FlightAware Approximate
11:04AM 23.1539 -75.6883 140° Southeast 510 587 41,500  Level Miami Center
11:05AM 23.0508 -75.6014 142° Southeast 483 556 42,900 1,140 Climbing Miami Center
11:06AM 22.9436 -75.5189 145° Southeast 477 549 43,800 780 Climbing Miami Center
11:07AM 22.8364 -75.4344 144° Southeast 477 549 44,500 600 Climbing Miami Center
11:08AM 22.7269 -75.3522 145° Southeast 477 549 45,000 120 Climbing Miami Center
11:10AM 22.5014 -75.1772 144° Southeast 489 563 45,000  Level Miami Center
11:11AM 22.4003 -75.0978 144° Southeast 500 575 45,000  Level Miami Center
11:12AM 22.2842 -75.0028 143° Southeast 511 588 45,000  Level Miami Center
11:13AM 22.1703 -74.9058 142° Southeast 516 594 45,000  Level Miami Center
11:14AM 22.0561 -74.8089 142° Southeast 521 600 45,000  Level Miami Center
11:15AM 21.9400 -74.7078 141° Southeast 521 600 45,000  Level Miami Center
11:17AM 21.7136 -74.5103 141° Southeast 526 605 45,000  Level Miami Center
11:18AM 21.5972 -74.4117 142° Southeast 521 600 45,000  Level Miami Center
11:19AM 21.4850 -74.3136 141° Southeast 521 600 45,000  Level Miami Center
11:20AM 21.3706 -74.2153 141° Southeast 521 600 45,000  Level Miami Center
11:21AM 21.2542 -74.1219 143° Southeast 521 600 45,000  Level Miami Center
11:23AM 21.0272 -73.9331 142° Southeast 521 600 45,000  Level Miami Center
11:25AM 20.7961 -73.7494 143° Southeast 515 593 45,000  Level Miami Center
11:27AM 20.5669 -73.5664 143° Southeast 515 593 45,000  Level Miami Center
11:28AM 20.4525 -73.4761 144° Southeast 515 593 45,000  Level Miami Center
11:29AM 20.3419 -73.3836 142° Southeast 510 587 45,000  Level Miami Center
11:30AM 20.2272 -73.2939 144° Southeast 505 581 45,000  Level Miami Center
11:31AM 20.1083 -73.2086 146° Southeast 510 587 45,000  Level Miami Center
11:33AM 19.9153 -73.0825 152° Southeast  Level FlightAware Approximate
11:40AM 19.1437 -72.6587 153° Southeast  Level FlightAware Approximate
11:41AM 19.0336 -72.5981 152° Southeast  Level FlightAware Approximate
11:42AM 18.9239 -72.5366 152° Southeast  Level FlightAware Approximate
11:43AM 18.8143 -72.4752 152° Southeast  Level FlightAware Approximate
11:44AM 18.7046 -72.4138 152° Southeast  Level FlightAware Approximate
11:45AM 18.5944 -72.3534 153° Southeast  Level FlightAware Approximate
11:46AM 18.4839 -72.2939 153° Southeast  Level FlightAware Approximate
11:47AM 18.3764 -72.2287 148° Southeast  Level FlightAware Approximate
11:48AM 18.2716 -72.1587 148° Southeast  Level FlightAware Approximate
11:49AM 18.1667 -72.0889 148° Southeast  Level FlightAware Approximate
11:50AM 18.0593 -72.0235 151° Southeast  Level FlightAware Approximate
11:51AM 17.9508 -71.9602 151° Southeast  Level FlightAware Approximate
11:52AM 17.8443 -71.8932 149° Southeast  Level FlightAware Approximate
11:53AM 17.7381 -71.8256 149° Southeast  Level FlightAware Approximate
11:54AM 17.6320 -71.7581 149° Southeast  Level FlightAware Approximate
11:55AM 17.5286 -71.6870 150° Southeast  Level FlightAware Approximate
11:56AM 17.4213 -71.6216 150° Southeast  Level FlightAware Approximate
11:57AM 17.3140 -71.5562 150° Southeast  Level FlightAware Approximate
11:58AM 17.2067 -71.4910 150° Southeast  Level FlightAware Approximate
11:59AM 17.0998 -71.4249 149° Southeast  Level FlightAware Approximate
12:00PM 16.9933 -71.3583 149° Southeast  Level FlightAware Approximate
12:01PM 16.8867 -71.2918 150° Southeast  Level FlightAware Approximate
12:02PM 16.7797 -71.2261 150° Southeast  Level FlightAware Approximate
12:03PM 16.6726 -71.1605 150° Southeast  Level FlightAware Approximate
12:04PM 16.5656 -71.0949 150° Southeast  Level FlightAware Approximate
12:05PM 16.4585 -71.0295 150° Southeast  Level FlightAware Approximate
12:06PM 16.3514 -70.9641 150° Southeast  Level FlightAware Approximate
12:07PM 16.2443 -70.8987 150° Southeast  Level FlightAware Approximate
12:08PM 16.1372 -70.8335 150° Southeast  Level FlightAware Approximate
12:09PM 16.0300 -70.7683 150° Southeast  Level FlightAware Approximate
12:10PM 15.9188 -70.7114 155° Southeast  Level FlightAware Approximate
12:11PM 15.8058 -70.6579 155° Southeast  Level FlightAware Approximate
12:12PM 15.6929 -70.6044 155° Southeast  Level FlightAware Approximate
12:13PM 15.5800 -70.5509 155° Southeast  Level FlightAware Approximate
12:14PM 15.4670 -70.4975 156° South  Level FlightAware Approximate
12:15PM 15.3540 -70.4442 156° South  Level FlightAware Approximate
12:16PM 15.2411 -70.3909 156° South  Level FlightAware Approximate
12:17PM 15.1281 -70.3377 156° South  Level FlightAware Approximate
12:18PM 15.0147 -70.2855 156° South  Level FlightAware Approximate
12:19PM 14.9010 -70.2339 156° South  Level FlightAware Approximate
12:20PM 14.7873 -70.1825 156° South  Level FlightAware Approximate
12:21PM 14.6736 -70.1310 156° South  Level FlightAware Approximate
12:22PM 14.5598 -70.0796 156° South  Level FlightAware Approximate
12:23PM 14.4461 -70.0283 156° South  Level FlightAware Approximate
12:24PM 14.3277 -69.9982 178° South  Level FlightAware Approximate
12:25PM 14.2037 -69.9943 178° South  Level FlightAware Approximate
12:26PM 14.0796 -69.9903 178° South  Level FlightAware Approximate
12:27PM 13.9556 -69.9864 178° South  Level FlightAware Approximate
12:28PM 13.8315 -69.9825 178° South  Level FlightAware Approximate
12:29PM 13.7074 -69.9786 178° South  Level FlightAware Approximate
12:30PM 13.5834 -69.9746 178° South  Level FlightAware Approximate
12:31PM 13.4593 -69.9707 178° South  Level FlightAware Approximate
12:32PM 13.3353 -69.9668 178° South  Level FlightAware Approximate
12:33PM 13.2112 -69.9629 178° South  Level FlightAware Approximate
12:34PM 13.0871 -69.9590 178° South  Level FlightAware Approximate
12:35PM 12.9631 -69.9551 178° South  Level FlightAware Approximate
12:36PM 12.8390 -69.9512 178° South  Level FlightAware Approximate
12:37PM 12.7151 -69.9447 177° South  Level FlightAware Approximate
12:38PM 12.5912 -69.9370 177° South  Level FlightAware Approximate
12:39PM 12.4677 -69.9275 170° South  Level FlightAware Approximate
12:40PM 12.3455 -69.9052 170° South  Level FlightAware Approximate
12:41PM 12.2280 -69.8659 172° South  Level FlightAware Approximate
12:42PM 12.1054 -69.8469 165° South  Level FlightAware Approximate
12:43PM 11.9855 -69.8142 165° South  Level FlightAware Approximate
12:44PM 11.8648 -69.7848 168° South  Level FlightAware Approximate
12:45PM 11.7437 -69.7568 166° South  Level FlightAware Approximate
12:46PM 11.6225 -69.7298 168° South  Level FlightAware Approximate
12:47PM 11.5010 -69.7038 168° South  Level FlightAware Approximate
12:48PM 11.3793 -69.6787 168° South  Level FlightAware Approximate
12:49PM 11.2581 -69.6518 168° South  Level FlightAware Approximate
12:50PM 11.1377 -69.6209 166° South  Level FlightAware Approximate
12:51PM 11.0175 -69.5897 166° South  Level FlightAware Approximate
12:52PM 10.8972 -69.5585 166° South  Level FlightAware Approximate
12:53PM 10.7766 -69.5286 169° South  Level FlightAware Approximate
12:54PM 10.6548 -69.5043 169° South  Level FlightAware Approximate
12:55PM 10.5340 -69.4752 166° South  Level FlightAware Approximate
12:56PM 10.4138 -69.4441 164° South  Level FlightAware Approximate
12:57PM 10.2947 -69.4084 164° South  Level FlightAware Approximate
12:58PM 10.1746 -69.3816 169° South  Level FlightAware Approximate
12:59PM 10.0533 -69.3550 166° South  Level FlightAware Approximate
01:00PM 10.0500 -69.3667 315° West  Level FlightAware Approximate
01:01PM 10.0428 -69.3586 315° West  Level Estimated
01:02PM 10.0428 -69.3586 315° West  Level Estimated
01:03PM 10.0428 -69.3586 315° West  Level Estimated
01:04PM 10.0428 -69.3586 315° West  Level Estimated
01:05PM 10.0428 -69.3586 315° West  Level Estimated
01:06PM 10.0428 -69.3586 315° West  Level Estimated
01:07PM 10.0428 -69.3586 315° West  Level Estimated
01:08PM 10.0428 -69.3586 315° West  Level Estimated
01:09PM 10.0428 -69.3586 315° West  Level Estimated
01:10PM 10.0428 -69.3586 315° West  Level Estimated
01:11PM 10.0428 -69.3586 315° West  Level Estimated
01:12PM 10.0428 -69.3586 315° West  Level Estimated
01:13PM 10.0428 -69.3586 315° West  Level Estimated
01:14PM 10.0428 -69.3586 315° West  Level Estimated